createdAt,value
2023-01-22T00:01:02.012Z,100.00
2023-01-22T00:03:29.073Z,99.19
2023-01-22T00:05:56.399Z,98.96
2023-01-22T00:08:23.380Z,97.97
2023-01-22T00:10:54.653Z,96.00
2023-01-22T00:13:23.955Z,96.63
2023-01-22T00:15:51.151Z,96.13
2023-01-22T00:18:19.130Z,95.76
2023-01-22T00:20:50.203Z,96.05
2023-01-22T00:23:17.313Z,95.49
2023-01-22T00:25:44.845Z,95.41
2023-01-22T00:28:12.873Z,95.19
2023-01-22T00:30:40.215Z,94.79
2023-01-22T00:33:09.120Z,93.50
2023-01-22T00:35:36.022Z,94.62
2023-01-22T00:38:03.913Z,95.66
2023-01-22T00:40:32.428Z,96.04
2023-01-22T00:42:59.278Z,95.55
2023-01-22T00:45:26.188Z,95.49
2023-01-22T00:47:53.597Z,95.44
2023-01-22T00:50:20.945Z,93.93
2023-01-22T00:52:47.882Z,94.08
2023-01-22T00:55:14.840Z,93.82
2023-01-22T00:57:41.795Z,93.86
2023-01-22T01:00:09.526Z,94.55
2023-01-22T01:02:56.373Z,94.96
2023-01-22T01:05:23.249Z,95.45
2023-01-22T01:07:51.391Z,95.27
2023-01-22T01:10:18.847Z,95.66
2023-01-22T01:12:45.893Z,95.54
2023-01-22T01:15:13.035Z,95.16
2023-01-22T01:17:39.996Z,95.35
2023-01-22T01:20:07.536Z,96.43
2023-01-22T01:22:34.447Z,97.40
2023-01-22T01:25:01.394Z,98.51
2023-01-22T01:27:31.710Z,98.79
2023-01-22T01:29:59.078Z,99.48
2023-01-22T01:32:26.137Z,100.00
2023-01-22T01:34:53.296Z,100.00
2023-01-22T01:37:20.267Z,100.00
2023-01-22T01:39:48.046Z,100.00
2023-01-22T01:42:14.955Z,100.00
2023-01-22T01:44:42.777Z,100.00
2023-01-22T01:47:30.697Z,100.00
2023-01-22T01:49:57.598Z,100.00
2023-01-22T01:52:24.517Z,100.00
2023-01-22T01:54:56.091Z,100.00
2023-01-22T01:57:29.368Z,100.00
2023-01-22T01:59:59.083Z,100.00
2023-01-22T02:02:26.050Z,100.00
2023-01-22T02:04:54.233Z,100.00
2023-01-22T02:07:21.184Z,100.00
2023-01-22T02:09:48.327Z,100.00
2023-01-22T02:12:15.595Z,100.00
2023-01-22T02:14:45.982Z,100.00
2023-01-22T02:17:32.719Z,100.00
2023-01-22T02:19:59.771Z,100.00
2023-01-22T02:22:32.671Z,100.00
2023-01-22T02:25:00.903Z,100.00
2023-01-22T02:27:30.394Z,100.00
2023-01-22T02:29:57.289Z,100.00
2023-01-22T02:32:24.287Z,100.00
2023-01-22T02:34:52.710Z,100.00
2023-01-22T02:37:19.753Z,100.00
2023-01-22T02:39:48.247Z,100.00
2023-01-22T02:42:15.522Z,100.00
2023-01-22T02:44:43.509Z,100.00
2023-01-22T02:47:12.083Z,100.00
2023-01-22T02:49:39.030Z,100.00
2023-01-22T02:52:06.336Z,100.00
2023-01-22T02:54:34.328Z,100.00
2023-01-22T02:57:01.281Z,100.00
2023-01-22T02:59:28.959Z,100.00
2023-01-22T03:01:57.258Z,100.00
2023-01-22T03:04:27.252Z,100.00
2023-01-22T03:06:54.153Z,100.00
2023-01-22T03:09:23.501Z,100.00
2023-01-22T03:11:51.099Z,100.00
2023-01-22T03:14:44.558Z,100.00
2023-01-22T03:17:30.120Z,100.00
2023-01-22T03:20:17.747Z,100.00
2023-01-22T03:22:45.009Z,100.00
2023-01-22T03:25:12.494Z,100.00
2023-01-22T03:28:01.223Z,100.00
2023-01-22T03:30:29.294Z,100.00
2023-01-22T03:32:56.221Z,100.00
2023-01-22T03:35:23.752Z,100.00
2023-01-22T03:38:06.982Z,100.00
2023-01-22T03:40:34.484Z,100.00
2023-01-22T03:43:01.563Z,100.00
2023-01-22T03:45:28.514Z,100.00
2023-01-22T03:47:55.441Z,100.00
2023-01-22T03:50:29.581Z,100.00
2023-01-22T03:52:58.064Z,100.00
2023-01-22T03:55:25.671Z,100.00
2023-01-22T03:57:54.007Z,100.00
2023-01-22T04:00:21.363Z,100.00
2023-01-22T04:02:50.494Z,100.00
2023-01-22T04:05:21.584Z,100.00
2023-01-22T04:07:50.800Z,100.00
2023-01-22T04:10:21.539Z,100.00
2023-01-22T04:12:49.205Z,100.00
2023-01-22T04:15:19.423Z,100.00
2023-01-22T04:17:47.407Z,100.00
2023-01-22T04:20:50.212Z,100.00
2023-01-22T04:23:21.188Z,100.00
2023-01-22T04:25:50.103Z,100.00
2023-01-22T04:28:18.149Z,100.00
2023-01-22T04:30:50.984Z,100.00
2023-01-22T04:33:30.504Z,100.00
2023-01-22T04:36:10.509Z,100.00
2023-01-22T04:38:37.798Z,100.00
2023-01-22T04:41:04.902Z,100.00
2023-01-22T04:43:32.600Z,100.00
2023-01-22T04:45:59.820Z,100.00
2023-01-22T04:48:30.836Z,100.00
2023-01-22T04:50:57.735Z,100.00
2023-01-22T04:53:28.124Z,100.00
2023-01-22T04:55:55.591Z,100.00
2023-01-22T04:58:22.646Z,100.00
2023-01-22T05:00:51.339Z,100.00
2023-01-22T05:03:18.386Z,100.00
2023-01-22T05:05:45.355Z,100.00
2023-01-22T05:08:12.472Z,100.00
2023-01-22T05:10:39.579Z,100.00
2023-01-22T05:13:08.972Z,100.00
2023-01-22T05:15:37.983Z,100.00
2023-01-22T05:18:09.008Z,100.00
2023-01-22T05:20:38.371Z,100.00
2023-01-22T05:23:05.789Z,100.00
2023-01-22T05:25:33.010Z,100.00
2023-01-22T05:28:00.921Z,100.00
2023-01-22T05:30:41.833Z,100.00
2023-01-22T05:33:16.297Z,100.00
2023-01-22T05:35:43.291Z,100.00
2023-01-22T05:38:11.356Z,100.00
2023-01-22T05:40:38.835Z,100.00
2023-01-22T05:43:05.823Z,100.00
2023-01-22T05:45:33.197Z,100.00
2023-01-22T05:48:29.473Z,100.00
2023-01-22T05:51:07.998Z,100.00
2023-01-22T05:53:35.640Z,100.00
2023-01-22T05:56:04.674Z,100.00
2023-01-22T05:58:35.562Z,100.00
2023-01-22T06:01:03.262Z,100.00
2023-01-22T06:03:35.795Z,100.00
2023-01-22T06:06:07.933Z,100.00
2023-01-22T06:08:34.980Z,100.00
2023-01-22T06:11:11.797Z,100.00
2023-01-22T06:13:39.831Z,100.00
2023-01-22T06:16:15.012Z,100.00
2023-01-22T06:19:12.548Z,100.00
2023-01-22T06:21:44.160Z,100.00
2023-01-22T06:24:12.106Z,100.00
2023-01-22T06:26:39.019Z,100.00
2023-01-22T06:29:08.577Z,100.00
2023-01-22T06:31:35.994Z,100.00
2023-01-22T06:34:06.726Z,100.00
2023-01-22T06:36:33.697Z,100.00
2023-01-22T06:39:00.815Z,100.00
2023-01-22T06:41:42.669Z,100.00
2023-01-22T06:44:12.603Z,100.00
2023-01-22T06:46:39.907Z,100.00
2023-01-22T06:49:10.778Z,100.00
2023-01-22T06:51:39.766Z,100.00
2023-01-22T06:54:07.227Z,100.00
2023-01-22T06:56:34.546Z,100.00
2023-01-22T06:59:04.209Z,100.00
2023-01-22T07:01:31.254Z,100.00
2023-01-22T07:03:58.317Z,100.00
2023-01-22T07:06:25.494Z,100.00
2023-01-22T07:08:52.429Z,100.00
2023-01-22T07:11:19.517Z,100.00
2023-01-22T07:13:46.414Z,100.00
2023-01-22T07:16:13.900Z,100.00
2023-01-22T07:18:40.886Z,100.00
2023-01-22T07:21:07.881Z,100.00
2023-01-22T07:23:34.805Z,100.00
2023-01-22T07:26:01.677Z,100.00
2023-01-22T07:28:28.689Z,100.00
2023-01-22T07:30:56.961Z,100.00
2023-01-22T07:33:24.096Z,100.00
2023-01-22T07:35:57.601Z,100.00
2023-01-22T07:38:30.523Z,100.00
2023-01-22T07:41:02.235Z,100.00
2023-01-22T07:43:30.464Z,100.00
2023-01-22T07:46:04.298Z,100.00
2023-01-22T07:48:31.328Z,100.00
2023-01-22T07:51:06.578Z,100.00
2023-01-22T07:53:34.305Z,100.00
2023-01-22T07:56:02.391Z,100.00
2023-01-22T07:58:29.436Z,100.00
2023-01-22T08:00:56.323Z,100.00
2023-01-22T08:03:23.497Z,100.00
2023-01-22T08:05:50.441Z,100.00
2023-01-22T08:08:20.566Z,100.00
2023-01-22T08:10:47.745Z,100.00
2023-01-22T08:13:15.091Z,100.00
2023-01-22T08:15:42.765Z,100.00
2023-01-22T08:18:11.402Z,100.00
2023-01-22T08:20:38.543Z,100.00
2023-01-22T08:23:05.427Z,100.00
2023-01-22T08:25:32.309Z,100.00
2023-01-22T08:28:02.873Z,100.00
2023-01-22T08:30:29.735Z,100.00
2023-01-22T08:32:56.606Z,100.00
2023-01-22T08:35:24.547Z,100.00
2023-01-22T08:37:51.599Z,100.00
2023-01-22T08:40:18.755Z,100.00
2023-01-22T08:42:51.425Z,100.00
2023-01-22T08:45:18.751Z,100.00
2023-01-22T08:47:45.771Z,100.00
2023-01-22T08:50:12.673Z,100.00
2023-01-22T08:52:39.657Z,100.00
2023-01-22T08:55:09.923Z,100.00
2023-01-22T08:57:37.319Z,100.00
2023-01-22T09:00:05.321Z,100.00
2023-01-22T09:02:32.607Z,100.00
2023-01-22T09:04:59.518Z,100.00
2023-01-22T09:07:26.496Z,100.00
2023-01-22T09:09:53.353Z,100.00
2023-01-22T09:12:20.387Z,100.00
2023-01-22T09:14:47.257Z,100.00
2023-01-22T09:17:14.203Z,100.00
2023-01-22T09:19:41.293Z,100.00
2023-01-22T09:22:08.155Z,100.00
2023-01-22T09:24:35.166Z,100.00
2023-01-22T09:27:02.158Z,100.00
2023-01-22T09:29:29.162Z,100.00
2023-01-22T09:31:56.871Z,100.00
2023-01-22T09:34:23.861Z,100.00
2023-01-22T09:36:50.952Z,100.00
2023-01-22T09:39:18.291Z,100.00
2023-01-22T09:41:52.501Z,100.00
2023-01-22T09:44:32.191Z,100.00
2023-01-22T09:47:11.722Z,100.00
2023-01-22T09:50:02.291Z,100.00
2023-01-22T09:52:34.759Z,100.00
2023-01-22T10:01:46.884Z,100.00
2023-01-22T10:04:31.258Z,100.00
2023-01-22T10:07:01.404Z,100.00
2023-01-22T10:09:31.283Z,100.00
2023-01-22T10:12:00.135Z,100.00
2023-01-22T10:14:30.218Z,100.00
2023-01-22T10:17:01.679Z,100.00
2023-01-22T10:19:51.481Z,100.00
2023-01-22T10:22:24.386Z,100.00
2023-01-22T10:24:52.262Z,100.00
2023-01-22T10:27:41.298Z,100.00
2023-01-22T10:30:14.305Z,100.00
2023-01-22T10:32:41.271Z,100.00
2023-01-22T10:35:11.424Z,100.00
2023-01-22T10:37:49.669Z,100.00
2023-01-22T10:40:27.422Z,100.00
2023-01-22T10:43:13.827Z,100.00
2023-01-22T10:46:01.811Z,100.00
2023-01-22T10:48:28.969Z,100.00
2023-01-22T10:51:05.456Z,100.00
2023-01-22T10:53:44.081Z,100.00
2023-01-22T10:56:29.456Z,99.73
2023-01-22T10:58:59.985Z,99.77
2023-01-22T11:01:36.558Z,99.05
2023-01-22T11:04:24.483Z,98.46
2023-01-22T11:06:56.278Z,98.14
2023-01-22T11:09:31.780Z,97.94
2023-01-22T11:12:08.399Z,97.39
2023-01-22T11:14:38.135Z,96.27
2023-01-22T11:17:31.306Z,96.09
2023-01-22T11:20:03.188Z,95.84
2023-01-22T11:22:40.862Z,94.70
2023-01-22T11:25:11.475Z,95.02
2023-01-22T11:27:50.631Z,95.01
2023-01-22T11:30:38.272Z,94.77
2023-01-22T11:33:20.541Z,94.10
2023-01-22T11:35:54.078Z,94.58
2023-01-22T11:38:30.100Z,93.01
2023-01-22T11:41:00.387Z,94.09
2023-01-22T11:43:43.485Z,94.69
2023-01-22T11:46:28.715Z,94.40
2023-01-22T11:49:08.244Z,94.65
2023-01-22T11:51:51.030Z,94.02
2023-01-22T11:54:35.955Z,94.22
2023-01-22T11:57:02.815Z,93.77
2023-01-22T11:59:51.617Z,92.99
2023-01-22T12:02:49.679Z,92.70
2023-01-22T12:05:46.162Z,90.56
2023-01-22T12:08:31.210Z,89.37
2023-01-22T12:11:32.700Z,90.47
2023-01-22T12:14:24.638Z,91.64
2023-01-22T12:17:35.898Z,91.98
2023-01-22T12:20:24.554Z,88.69
2023-01-22T12:23:19.588Z,87.28
2023-01-22T12:25:59.219Z,85.70
2023-01-22T12:28:45.763Z,85.37
2023-01-22T12:31:41.276Z,84.97
2023-01-22T12:34:27.828Z,85.42
2023-01-22T12:36:55.819Z,84.74
2023-01-22T12:39:57.607Z,84.99
2023-01-22T12:42:32.578Z,84.86
2023-01-22T12:45:25.356Z,85.19
2023-01-22T12:48:10.222Z,85.90
2023-01-22T12:50:49.285Z,87.33
2023-01-22T12:53:34.870Z,87.14
2023-01-22T12:56:08.655Z,86.08
2023-01-22T12:58:38.477Z,87.66
2023-01-22T13:01:13.717Z,89.19
2023-01-22T13:03:42.151Z,90.33
2023-01-22T13:06:21.542Z,91.06
2023-01-22T13:08:48.646Z,90.92
2023-01-22T13:11:38.305Z,92.09
2023-01-22T13:14:26.803Z,92.00
2023-01-22T13:17:00.139Z,91.09
2023-01-22T13:19:30.955Z,90.53
2023-01-22T13:22:00.020Z,91.38
2023-01-22T13:24:27.023Z,89.84
2023-01-22T13:27:01.907Z,90.02
2023-01-22T13:29:37.102Z,89.73
2023-01-22T13:32:15.414Z,90.63
2023-01-22T13:34:42.332Z,91.22
2023-01-22T13:37:23.863Z,88.59
2023-01-22T13:39:51.002Z,88.33
2023-01-22T13:42:18.829Z,88.42
2023-01-22T13:44:50.337Z,88.12
2023-01-22T13:47:33.521Z,88.31
2023-01-22T13:50:02.021Z,88.16
2023-01-22T13:52:33.113Z,88.02
2023-01-22T13:55:05.704Z,86.92
2023-01-22T13:57:32.662Z,86.92
2023-01-22T14:00:01.985Z,88.28
2023-01-22T14:02:34.667Z,87.58
2023-01-22T14:05:02.275Z,87.63
2023-01-22T14:07:39.614Z,87.89
2023-01-22T14:10:23.375Z,88.70
2023-01-22T14:13:04.748Z,88.31
2023-01-22T14:15:32.638Z,87.62
2023-01-22T14:18:13.526Z,87.14
2023-01-22T14:20:42.031Z,88.02
2023-01-22T14:23:09.111Z,88.31
2023-01-22T14:25:46.434Z,87.73
2023-01-22T14:28:14.678Z,88.48
2023-01-22T14:30:41.729Z,88.45
2023-01-22T14:33:14.996Z,88.18
2023-01-22T14:35:41.972Z,88.18
2023-01-22T14:38:08.982Z,88.05
2023-01-22T14:40:36.003Z,88.06
2023-01-22T14:43:03.608Z,88.76
2023-01-22T14:45:30.609Z,88.26
2023-01-22T14:47:57.626Z,89.05
2023-01-22T14:50:24.811Z,88.62
2023-01-22T14:52:52.048Z,88.15
2023-01-22T14:55:19.840Z,89.31
2023-01-22T14:57:47.087Z,88.98
2023-01-22T15:00:17.251Z,89.99
2023-01-22T15:02:44.997Z,89.97
2023-01-22T15:05:12.159Z,89.83
2023-01-22T15:07:39.004Z,91.02
2023-01-22T15:10:08.208Z,90.76
2023-01-22T15:12:36.416Z,92.19
2023-01-22T15:15:03.768Z,92.28
2023-01-22T15:17:31.423Z,91.92
2023-01-22T15:19:58.364Z,91.63
2023-01-22T15:22:25.412Z,91.82
2023-01-22T15:24:52.276Z,92.44
2023-01-22T15:27:19.293Z,93.16
2023-01-22T15:29:50.776Z,92.89
2023-01-22T15:32:18.023Z,92.71
2023-01-22T15:34:44.973Z,92.28
2023-01-22T15:37:13.824Z,92.86
2023-01-22T15:39:41.974Z,92.79
2023-01-22T15:42:09.427Z,92.18
2023-01-22T15:44:37.616Z,92.74
2023-01-22T15:47:06.639Z,93.39
2023-01-22T15:49:34.903Z,93.96
2023-01-22T15:52:01.844Z,93.09
2023-01-22T15:54:28.956Z,93.35
2023-01-22T15:56:56.106Z,93.66
2023-01-22T15:59:23.139Z,94.02
2023-01-22T16:01:50.126Z,93.83
2023-01-22T16:04:17.001Z,94.50
2023-01-22T16:06:44.653Z,95.17
2023-01-22T16:09:11.761Z,95.60
2023-01-22T16:11:38.785Z,95.89
2023-01-22T16:14:05.797Z,94.82
2023-01-22T16:16:36.463Z,94.22
2023-01-22T16:19:05.736Z,93.94
2023-01-22T16:21:33.031Z,94.35
2023-01-22T16:24:01.511Z,95.61
2023-01-22T16:26:31.567Z,95.15
2023-01-22T16:29:00.379Z,94.61
2023-01-22T16:31:30.153Z,94.20
2023-01-22T16:34:06.489Z,94.23
2023-01-22T16:36:33.611Z,94.17
2023-01-22T16:39:01.072Z,93.73
2023-01-22T16:41:33.462Z,93.64
2023-01-22T16:44:16.203Z,93.55
2023-01-22T16:46:45.783Z,95.01
2023-01-22T16:49:18.517Z,95.31
2023-01-22T16:51:54.126Z,95.11
2023-01-22T16:54:34.168Z,96.42
2023-01-22T16:57:03.760Z,96.07
2023-01-22T16:59:32.260Z,96.35
2023-01-22T17:02:00.997Z,94.86
2023-01-22T17:04:28.595Z,95.74
2023-01-22T17:06:57.608Z,95.21
2023-01-22T17:09:30.347Z,94.96
2023-01-22T17:12:00.154Z,94.58
2023-01-22T17:14:29.937Z,95.17
2023-01-22T17:16:58.263Z,95.74
2023-01-22T17:19:27.521Z,95.33
2023-01-22T17:21:56.777Z,96.57
2023-01-22T17:24:24.312Z,96.15
2023-01-22T17:26:52.008Z,96.49
2023-01-22T17:29:20.081Z,95.84
2023-01-22T17:31:48.782Z,95.33
2023-01-22T17:34:16.251Z,95.32
2023-01-22T17:36:43.401Z,94.83
2023-01-22T17:39:15.941Z,94.34
2023-01-22T17:41:43.653Z,95.63
2023-01-22T17:44:11.346Z,96.00
2023-01-22T17:46:38.478Z,96.53
2023-01-22T17:49:05.809Z,97.12
2023-01-22T17:51:34.778Z,98.06
2023-01-22T17:54:03.429Z,98.39
2023-01-22T17:56:39.343Z,98.54
2023-01-22T17:59:07.358Z,99.14
2023-01-22T18:01:36.798Z,99.23
2023-01-22T18:04:06.972Z,98.24
2023-01-22T18:06:34.754Z,97.89
2023-01-22T18:09:03.114Z,97.72
2023-01-22T18:11:30.964Z,98.01
2023-01-22T18:14:06.466Z,98.77
2023-01-22T18:16:36.315Z,99.59
2023-01-22T18:19:05.643Z,99.22
2023-01-22T18:21:33.485Z,99.13
2023-01-22T18:24:02.113Z,98.61
2023-01-22T18:26:29.600Z,97.72
2023-01-22T18:28:58.013Z,97.19
2023-01-22T18:31:27.218Z,96.49
2023-01-22T18:33:56.394Z,96.86
2023-01-22T18:36:26.189Z,96.63
2023-01-22T18:38:53.151Z,96.24
2023-01-22T18:41:23.988Z,96.78
2023-01-22T18:43:56.280Z,97.38
2023-01-22T18:46:25.369Z,97.40
2023-01-22T18:48:54.970Z,97.75
2023-01-22T18:51:23.120Z,98.78
2023-01-22T18:53:50.345Z,99.24
2023-01-22T18:56:17.276Z,99.46
2023-01-22T18:58:45.180Z,98.98
2023-01-22T19:01:18.048Z,99.02
2023-01-22T19:03:49.348Z,98.18
2023-01-22T19:06:19.360Z,97.94
2023-01-22T19:08:56.924Z,98.06
2023-01-22T19:11:25.364Z,98.68
2023-01-22T19:13:54.610Z,98.71
2023-01-22T19:16:22.815Z,98.95
2023-01-22T19:18:58.169Z,98.28
2023-01-22T19:21:26.968Z,98.53
2023-01-22T19:23:57.968Z,97.75
2023-01-22T19:26:31.445Z,97.51
2023-01-22T19:29:01.658Z,97.52
2023-01-22T19:31:32.624Z,97.75
2023-01-22T19:34:01.993Z,97.04
2023-01-22T19:36:32.353Z,97.04
2023-01-22T19:39:22.608Z,97.40
2023-01-22T19:42:19.396Z,97.32
2023-01-22T19:44:47.204Z,97.06
2023-01-22T19:47:15.518Z,97.33
2023-01-22T19:49:42.694Z,97.37
2023-01-22T19:52:10.158Z,97.23
2023-01-22T19:54:40.931Z,97.01
2023-01-22T19:57:08.278Z,97.10
2023-01-22T19:59:35.447Z,97.25
2023-01-22T20:02:02.714Z,97.33
2023-01-22T20:04:33.763Z,97.51
2023-01-22T20:07:04.604Z,97.04
2023-01-22T20:09:34.252Z,97.50
2023-01-22T20:12:01.593Z,97.06
2023-01-22T20:14:31.156Z,97.21
2023-01-22T20:16:59.477Z,97.20
2023-01-22T20:19:30.646Z,96.79
2023-01-22T20:21:59.758Z,96.99
2023-01-22T20:24:28.315Z,96.63
2023-01-22T20:27:02.592Z,96.54
2023-01-22T20:29:33.872Z,96.82
2023-01-22T20:32:01.106Z,96.98
2023-01-22T20:34:28.195Z,97.10
2023-01-22T20:36:55.326Z,97.37
2023-01-22T20:39:23.095Z,97.34
2023-01-22T20:41:50.314Z,97.16
2023-01-22T20:44:17.880Z,97.41
2023-01-22T20:46:45.670Z,97.67
2023-01-22T20:49:12.978Z,97.04
2023-01-22T20:51:41.997Z,97.08
2023-01-22T20:54:09.152Z,97.42
2023-01-22T20:56:36.269Z,97.22
2023-01-22T20:59:10.431Z,97.22
2023-01-22T21:01:37.994Z,97.21
2023-01-22T21:04:05.617Z,97.22
2023-01-22T21:06:35.383Z,97.15
2023-01-22T21:09:03.768Z,97.41
2023-01-22T21:11:33.159Z,97.51
2023-01-22T21:14:02.191Z,97.02
2023-01-22T21:16:35.592Z,96.85
2023-01-22T21:19:11.385Z,96.74
2023-01-22T21:21:38.635Z,96.80
2023-01-22T21:24:06.144Z,97.17
2023-01-22T21:26:33.856Z,97.21
2023-01-22T21:29:11.975Z,96.94
2023-01-22T21:31:39.195Z,96.52
2023-01-22T21:34:08.759Z,97.90
2023-01-22T21:36:50.156Z,97.93
2023-01-22T21:39:22.006Z,98.25
2023-01-22T21:41:49.141Z,98.72
2023-01-22T21:44:37.736Z,98.82
2023-01-22T21:47:05.672Z,98.78
2023-01-22T21:49:35.323Z,99.20
2023-01-22T21:52:12.213Z,99.69
2023-01-22T21:54:42.628Z,99.22
2023-01-22T21:57:14.362Z,99.95
2023-01-22T21:59:41.959Z,100.00
2023-01-22T22:02:14.728Z,100.00
2023-01-22T22:04:42.511Z,100.00
2023-01-22T22:07:09.565Z,100.00
2023-01-22T22:09:37.439Z,100.00
2023-01-22T22:12:05.471Z,100.00
2023-01-22T22:14:33.259Z,100.00
2023-01-22T22:17:00.493Z,100.00
2023-01-22T22:19:29.039Z,100.00
2023-01-22T22:21:56.604Z,100.00
2023-01-22T22:24:23.591Z,100.00
2023-01-22T22:26:50.701Z,100.00
2023-01-22T22:29:17.742Z,100.00
2023-01-22T22:31:44.786Z,100.00
2023-01-22T22:34:11.785Z,100.00
2023-01-22T22:36:39.133Z,100.00
2023-01-22T22:39:06.732Z,100.00
2023-01-22T22:41:36.283Z,100.00
2023-01-22T22:44:04.302Z,100.00
2023-01-22T22:46:34.089Z,100.00
2023-01-22T22:49:02.154Z,100.00
2023-01-22T22:51:38.310Z,100.00
2023-01-22T22:54:08.000Z,100.00
2023-01-22T22:56:35.309Z,100.00
2023-01-22T22:59:03.085Z,100.00
2023-01-22T23:01:35.590Z,100.00
2023-01-22T23:04:02.907Z,100.00
2023-01-22T23:06:32.548Z,100.00
2023-01-22T23:09:11.041Z,100.00
2023-01-22T23:11:38.630Z,100.00
2023-01-22T23:14:06.013Z,100.00
2023-01-22T23:16:36.700Z,100.00
2023-01-22T23:19:07.602Z,100.00
2023-01-22T23:21:36.508Z,100.00
2023-01-22T23:24:03.728Z,100.00
2023-01-22T23:26:31.119Z,100.00
2023-01-22T23:29:02.113Z,100.00
2023-01-22T23:31:31.892Z,100.00
2023-01-22T23:34:00.579Z,100.00
2023-01-22T23:36:27.702Z,100.00
2023-01-22T23:38:55.181Z,100.00
2023-01-22T23:41:23.313Z,100.00
2023-01-22T23:43:50.689Z,100.00
2023-01-22T23:46:20.665Z,100.00
2023-01-22T23:48:48.290Z,100.00
2023-01-22T23:51:15.941Z,100.00
2023-01-22T23:53:47.336Z,100.00
2023-01-22T23:56:15.498Z,100.00
2023-01-22T23:58:42.804Z,100.00
